Time;durP1;ratioP1;P1;durP2;ratioP2;P2;SDS_P1;SDS_P2;PMS_P1;PMS_P2;Temp;Humidity;BMP_temperature;BMP_pressure;BME280_temperature;BME280_humidity;BME280_pressure;Samples;Min_cycle;Max_cycle;Signal;HPM_P1;HPM_P2
2022/05/14 00:02:35;457510.00;1.53;788.70;0.00;0.00;0.62;;;;;18.50;1.00;;;;;;1305763;40;3247;-88
2022/05/14 00:15:15;948760.00;3.16;1641.92;0.00;0.00;0.62;;;;;18.70;1.00;;;;;;2305573;40;3453;-87
2022/05/14 00:17:44;223289.00;0.74;386.00;0.00;0.00;0.62;;;;;18.80;1.00;;;;;;2323558;40;3715;-87
2022/05/14 00:20:12;20119.00;0.07;35.48;0.00;0.00;0.62;;;;;18.60;1.00;;;;;;2324367;55;3760;-89
2022/05/14 00:22:40;680900.00;2.27;1174.13;46136.00;0.15;80.50;;;;;18.40;1.00;;;;;;2274298;40;3641;-87
2022/05/14 00:27:42;1578807.00;5.26;2792.30;35071.00;0.12;61.36;;;;;17.60;1.00;;;;;;2282494;56;3645;-90
2022/05/14 00:30:13;536125.00;1.79;924.05;81581.00;0.27;141.77;;;;;17.50;1.00;;;;;;2290146;40;3595;-87
2022/05/14 00:32:40;448014.00;1.49;772.37;75941.00;0.25;132.03;;;;;17.50;1.00;;;;;;2274151;55;3852;-87
2022/05/14 00:35:10;336203.00;1.12;580.15;0.00;0.00;0.62;;;;;17.30;1.00;;;;;;2295506;56;3759;-87
2022/05/14 00:37:38;335676.00;1.12;579.24;0.00;0.00;0.62;;;;;17.00;1.00;;;;;;2273429;61;1326;-87
2022/05/14 00:40:09;328320.00;1.09;566.60;0.00;0.00;0.62;;;;;16.90;1.00;;;;;;2406053;40;3602;-87
2022/05/14 00:45:08;841097.00;2.80;1452.89;0.00;0.00;0.62;;;;;17.10;1.00;;;;;;2275181;61;1331;-88
2022/05/14 00:47:38;370792.00;1.24;639.60;0.00;0.00;0.62;;;;;17.40;1.00;;;;;;2300030;56;3772;-88
2022/05/14 00:50:13;329180.00;1.10;568.08;0.00;0.00;0.62;;;;;17.40;1.00;;;;;;2315209;40;3612;-87
2022/05/14 00:55:14;1369144.00;4.56;2399.22;59025.00;0.20;102.79;;;;;16.40;1.00;;;;;;2288662;40;3475;-88
2022/05/14 01:00:15;1925398.00;6.42;3472.25;114411.00;0.38;198.44;;;;;16.50;1.00;;;;;;2281451;40;3696;-87
2022/05/14 01:02:42;412559.00;1.38;711.40;85995.00;0.29;149.39;;;;;16.80;1.00;;;;;;2279747;40;3567;-86
2022/05/14 01:15:40;2714102.00;9.05;5208.57;79110.00;0.26;137.50;;;;;15.90;1.00;;;;;;2293308;56;3571;-89
2022/05/14 01:18:07;945962.00;3.15;1636.99;130353.00;0.43;225.94;;;;;16.40;1.00;;;;;;2370664;41;3822;-88
2022/05/14 01:23:17;690284.00;2.30;1190.39;0.00;0.00;0.62;;;;;17.00;1.00;;;;;;2283816;55;3709;-87
2022/05/14 01:28:20;882279.00;2.94;1525.02;84003.00;0.28;145.95;;;;;17.40;1.00;;;;;;795355;56;3734;-87
2022/05/14 01:33:16;1967522.00;6.56;3557.85;211644.00;0.71;365.96;;;;;17.50;1.00;;;;;;2291671;55;3732;-88
2022/05/14 01:35:44;1068318.00;3.56;1853.86;175822.00;0.59;304.29;;;;;17.30;1.00;;;;;;2360801;40;3783;-87
2022/05/14 01:38:12;860442.00;2.87;1486.75;132489.00;0.44;229.62;;;;;17.00;1.00;;;;;;2302704;56;3754;-86
2022/05/14 01:40:39;485677.00;1.62;837.17;96451.00;0.32;167.45;;;;;16.80;1.00;;;;;;2273169;61;1927;-88
2022/05/14 01:43:07;501519.00;1.67;864.44;66722.00;0.22;116.10;;;;;16.70;1.00;;;;;;2401108;40;3762;-87
2022/05/14 01:45:38;501375.00;1.67;864.19;0.00;0.00;0.62;;;;;16.60;1.00;;;;;;2284971;40;3547;-86
2022/05/14 01:48:06;807619.00;2.69;1394.41;37462.00;0.12;65.50;;;;;16.50;1.00;;;;;;2318912;56;3736;-86
2022/05/14 02:00:58;435086.00;1.45;750.13;0.00;0.00;0.62;;;;;16.90;1.00;;;;;;2312686;40;3769;-86
2022/05/14 02:05:55;933749.00;3.11;1615.47;0.00;0.00;0.62;;;;;16.90;1.00;;;;;;1980180;40;3591;-88
2022/05/14 02:08:22;201934.00;0.67;349.25;0.00;0.00;0.62;;;;;16.80;1.00;;;;;;2274147;55;3737;-88
2022/05/14 02:10:49;241461.00;0.80;417.26;0.00;0.00;0.62;;;;;16.90;1.00;;;;;;2280127;55;3726;-90
2022/05/14 02:13:16;611651.00;2.04;1054.34;49282.00;0.16;85.94;;;;;16.80;1.00;;;;;;2289170;41;3737;-86
2022/05/14 02:15:43;616405.00;2.05;1062.55;108084.00;0.36;187.52;;;;;16.60;1.00;;;;;;2282924;40;3587;-90
2022/05/14 02:18:12;978055.00;3.26;1693.64;55932.00;0.19;97.44;;;;;16.50;1.00;;;;;;2295987;40;3796;-89
2022/05/14 02:20:39;980704.00;3.27;1698.33;171002.00;0.57;295.99;;;;;16.70;1.00;;;;;;2272109;61;2006;-87
2022/05/14 02:28:14;848931.00;2.83;1466.60;132811.00;0.44;230.18;;;;;16.10;1.00;;;;;;1438190;40;3219;-88
2022/05/14 02:30:45;328895.00;1.10;567.59;0.00;0.00;0.62;;;;;16.20;1.00;;;;;;2272077;61;1031;-88
2022/05/14 02:33:14;710022.00;2.37;1224.62;68066.00;0.23;118.42;;;;;16.10;1.00;;;;;;2274064;55;3805;-87
2022/05/14 02:35:42;1480816.00;4.94;2607.07;111247.00;0.37;192.98;;;;;16.20;1.00;;;;;;2272373;61;925;-87
2022/05/14 02:40:38;1119493.00;3.73;1945.32;98124.00;0.33;170.33;;;;;16.40;1.00;;;;;;2286929;56;3594;-87
2022/05/14 02:43:06;629029.00;2.10;1084.37;83137.00;0.28;144.46;;;;;16.40;1.00;;;;;;2277696;40;3656;-88
2022/05/14 02:45:33;262937.00;0.88;454.20;0.00;0.00;0.62;;;;;16.00;1.00;;;;;;2282360;40;3575;-86
2022/05/14 02:48:03;513021.00;1.71;884.24;24702.00;0.08;43.41;;;;;16.00;1.00;;;;;;2313968;55;3723;-88
2022/05/14 02:50:32;2118589.00;7.06;3870.74;355607.00;1.19;613.50;;;;;16.50;1.00;;;;;;2272224;61;1581;-87
2022/05/14 02:52:59;913681.00;3.05;1580.16;119882.00;0.40;207.88;;;;;16.60;1.00;;;;;;2281806;55;3806;-88
2022/05/14 02:55:26;232612.00;0.78;402.04;0.00;0.00;0.62;;;;;17.10;1.00;;;;;;2276433;55;3746;-85
2022/05/14 02:57:54;416979.00;1.39;719.00;6731.00;0.02;12.29;;;;;17.10;1.00;;;;;;2279945;40;3563;-86
2022/05/14 03:00:22;1797291.00;5.99;3216.06;92508.00;0.31;160.64;;;;;17.10;1.00;;;;;;2276941;55;3729;-88
2022/05/14 03:02:49;968479.00;3.23;1676.72;106120.00;0.35;184.13;;;;;17.20;1.00;;;;;;2280762;40;3625;-87
2022/05/14 03:05:19;543648.00;1.81;937.01;0.00;0.00;0.62;;;;;17.50;1.00;;;;;;2304378;40;3585;-88
2022/05/14 03:07:48;431303.00;1.44;743.63;23208.00;0.08;40.82;;;;;17.40;1.00;;;;;;2271973;61;1413;-87
2022/05/14 03:10:16;382949.00;1.28;660.49;0.00;0.00;0.62;;;;;17.00;1.00;;;;;;2279518;40;3575;-86
2022/05/14 03:12:44;555849.00;1.85;958.04;0.00;0.00;0.62;;;;;17.20;1.00;;;;;;2299451;40;3787;-87
2022/05/14 03:15:13;327363.00;1.09;564.95;0.00;0.00;0.62;;;;;17.30;1.00;;;;;;2311867;40;3703;-89
2022/05/14 03:20:12;1450351.00;4.83;2550.04;92028.00;0.31;159.81;;;;;16.80;1.00;;;;;;2277354;61;1324;-87
2022/05/14 03:25:15;828567.00;2.76;1430.99;30849.00;0.10;54.05;;;;;16.80;1.00;;;;;;2274610;61;1319;-89
2022/05/14 03:27:42;1910260.00;6.37;3441.66;231723.00;0.77;400.51;;;;;17.00;1.00;;;;;;2279995;40;3623;-86
2022/05/14 03:30:11;986622.00;3.29;1708.79;50259.00;0.17;87.63;;;;;16.70;1.00;;;;;;2375152;41;3736;-87
2022/05/14 03:32:38;831783.00;2.77;1436.61;102009.00;0.34;177.04;;;;;16.60;1.00;;;;;;2272619;61;1575;-88
2022/05/14 03:35:08;291232.00;0.97;502.85;0.00;0.00;0.62;;;;;16.60;1.00;;;;;;2295197;40;3575;-86
2022/05/14 03:37:36;1884707.00;6.28;3390.21;91610.00;0.31;159.09;;;;;16.30;1.00;;;;;;2275925;61;1581;-89
2022/05/14 03:40:05;620936.00;2.07;1070.38;15427.00;0.05;27.35;;;;;16.20;1.00;;;;;;2276965;40;3802;-87
2022/05/14 03:42:34;161906.00;0.54;280.32;0.00;0.00;0.62;;;;;16.30;1.00;;;;;;2279397;55;3712;-87
2022/05/14 03:47:31;998640.00;3.33;1730.06;0.00;0.00;0.62;;;;;16.20;1.00;;;;;;2273255;61;1321;-87
2022/05/14 03:52:27;1053248.00;3.51;1827.01;0.00;0.00;0.62;;;;;16.80;1.00;;;;;;1977130;40;3583;-87
2022/05/14 03:54:54;893960.00;2.98;1545.51;42575.00;0.14;74.34;;;;;16.70;1.00;;;;;;2296762;55;3737;-89
2022/05/14 03:59:58;2242748.00;7.48;4135.27;156722.00;0.52;271.39;;;;;16.10;1.00;;;;;;2279625;40;3477;-86
2022/05/14 04:02:25;635213.00;2.12;1095.06;163159.00;0.54;282.48;;;;;16.20;1.00;;;;;;2301643;40;3585;-86
2022/05/14 04:04:52;515317.00;1.72;888.20;85428.00;0.28;148.41;;;;;16.30;1.00;;;;;;2271850;61;1775;-88
2022/05/14 04:07:19;213211.00;0.71;368.66;0.00;0.00;0.62;;;;;16.40;1.00;;;;;;2271910;61;1596;-87
2022/05/14 04:09:46;419350.00;1.40;723.07;0.00;0.00;0.62;;;;;16.40;1.00;;;;;;2282628;40;3583;-84
2022/05/14 04:12:13;204280.00;0.68;353.29;0.00;0.00;0.62;;;;;16.70;1.00;;;;;;2272733;61;2191;-87
2022/05/14 04:14:41;128493.00;0.43;222.73;0.00;0.00;0.62;;;;;17.00;1.00;;;;;;2272740;61;1501;-87
2022/05/14 04:17:09;1584768.00;5.28;2803.66;77630.00;0.26;134.94;;;;;17.20;1.00;;;;;;2322481;40;3606;-86
2022/05/14 04:19:42;1350481.00;4.50;2364.79;223612.00;0.75;386.56;;;;;17.40;1.00;;;;;;2275708;55;3748;-86
2022/05/14 04:22:11;597072.00;1.99;1029.16;85839.00;0.29;149.12;;;;;17.50;1.00;;;;;;2295397;40;3570;-89
2022/05/14 04:24:38;214469.00;0.71;370.83;0.00;0.00;0.62;;;;;17.10;1.00;;;;;;2271916;61;1040;-88
2022/05/14 04:27:06;291151.00;0.97;502.71;10054.00;0.03;18.04;;;;;17.10;1.00;;;;;;2272027;61;1141;-87
2022/05/14 04:29:33;202899.00;0.68;350.91;0.00;0.00;0.62;;;;;16.70;1.00;;;;;;2276288;55;3713;-87
2022/05/14 04:32:00;163713.00;0.55;283.44;0.00;0.00;0.62;;;;;16.40;1.00;;;;;;2271979;61;1270;-89
2022/05/14 04:34:28;843028.00;2.81;1456.27;32454.00;0.11;56.83;;;;;16.10;1.00;;;;;;2284742;40;3598;-87
2022/05/14 04:36:56;1353963.00;4.51;2371.21;200827.00;0.67;347.35;;;;;16.20;1.00;;;;;;2287784;40;3619;-87
2022/05/14 04:39:31;384741.00;1.28;663.57;83693.00;0.28;145.42;;;;;16.50;1.00;;;;;;2272025;61;1637;-87
2022/05/14 04:44:28;882835.00;2.94;1525.99;6164.00;0.02;11.30;;;;;16.80;1.00;;;;;;2269831;61;1360;-87
2022/05/14 04:46:56;192238.00;0.64;332.56;0.00;0.00;0.62;;;;;16.80;1.00;;;;;;2272540;55;3715;-87
2022/05/14 04:49:24;219544.00;0.73;379.56;23368.00;0.08;41.10;;;;;16.80;1.00;;;;;;2301442;40;3731;-87
2022/05/14 04:51:52;767792.00;2.56;1325.01;46885.00;0.16;81.80;;;;;16.80;1.00;;;;;;2271802;61;1300;-87
2022/05/14 04:54:19;1975025.00;6.58;3573.17;162596.00;0.54;281.51;;;;;16.70;1.00;;;;;;2271839;61;1784;-89
2022/05/14 04:56:46;805710.00;2.69;1391.08;89708.00;0.30;155.80;;;;;17.00;1.00;;;;;;2313620;40;3574;-87
2022/05/14 05:03:16;841452.00;2.80;1453.51;0.00;0.00;0.62;;;;;17.40;1.00;;;;;;2280893;40;3511;-85
2022/05/14 05:04:32;0.00;0.00;0.62;0.00;0.00;0.62;;;;;17.40;1.00;;;;;;2271908;61;1211;-88
2022/05/14 05:07:00;286348.00;0.95;494.45;0.00;0.00;0.62;;;;;17.60;1.00;;;;;;2271796;61;941;-88
2022/05/14 05:09:27;1187920.00;3.96;2068.39;104522.00;0.35;181.38;;;;;17.80;1.00;;;;;;2271819;61;908;-86
2022/05/14 05:11:57;758245.00;2.53;1308.40;7638.00;0.03;13.86;;;;;17.90;1.00;;;;;;2318350;40;3610;-87
2022/05/14 05:19:30;1465253.00;4.88;2577.91;99822.00;0.33;173.26;;;;;18.60;1.00;;;;;;2301528;40;3696;-88
2022/05/14 05:21:58;1161964.00;3.87;2021.60;104190.00;0.35;180.80;;;;;19.00;1.00;;;;;;2272299;61;1931;-87
2022/05/14 05:34:34;662872.00;2.21;1142.91;90141.00;0.30;156.55;;;;;18.80;1.00;;;;;;1983709;59;2851;-89
2022/05/14 05:37:01;119104576.00;397.02;68443280.00;32404.00;0.11;56.74;;;;;20.20;1.00;;;;;;2315199;40;3591;-88
2022/05/14 05:39:29;178125.00;0.59;308.26;0.00;0.00;0.62;;;;;22.00;1.00;;;;;;2272364;61;999;-88
2022/05/14 05:41:58;622567.00;2.08;1073.20;88032.00;0.29;152.91;;;;;23.40;1.00;;;;;;2316352;40;3709;-88
2022/05/14 05:44:25;245097.00;0.82;423.52;84083.00;0.28;146.09;;;;;24.50;1.00;;;;;;2281771;55;3820;-88
2022/05/14 05:46:53;178177.00;0.59;308.35;0.00;0.00;0.62;;;;;25.50;1.00;;;;;;2272363;61;1604;-87
2022/05/14 05:49:21;246283.00;0.82;425.56;41549.00;0.14;72.57;;;;;26.70;1.00;;;;;;2297904;55;3739;-90
2022/05/14 05:51:49;285209.00;0.95;492.49;0.00;0.00;0.62;;;;;27.40;1.00;;;;;;2289209;40;3583;-88
2022/05/14 05:59:32;446152.00;1.49;769.16;0.00;0.00;0.62;;;;;28.70;1.00;;;;;;2271550;55;1171242;-89
2022/05/14 06:01:59;387780.00;1.29;668.80;17085.00;0.06;30.22;;;;;28.80;1.00;;;;;;2272538;61;2004;-90
2022/05/14 06:04:27;1032385.00;3.44;1789.91;73210.00;0.24;127.31;;;;;28.80;1.00;;;;;;2272316;61;1653;-90
2022/05/14 06:06:55;2043415.00;6.81;3713.85;241056.00;0.80;416.57;;;;;28.90;1.00;;;;;;2272419;61;1652;-89
2022/05/14 06:09:26;1141256.00;3.80;1984.36;183482.00;0.61;317.49;;;;;29.00;1.00;;;;;;2312077;40;3601;-88
2022/05/14 06:14:24;1018585.00;3.40;1765.42;0.00;0.00;0.62;;;;;29.50;1.00;;;;;;2270084;61;1416;-88
2022/05/14 06:16:51;135328.00;0.45;234.52;0.00;0.00;0.62;;;;;29.70;1.00;;;;;;2268323;61;1626;-88
2022/05/14 06:19:18;191375.00;0.64;331.08;0.00;0.00;0.62;;;;;30.20;1.00;;;;;;2268307;61;1419;-88
2022/05/14 06:26:52;65499.00;0.22;113.98;0.00;0.00;0.62;;;;;30.60;1.00;;;;;;2452037;40;2106;-89
2022/05/14 06:31:55;706943.00;2.36;1219.28;30949.00;0.10;54.23;;;;;30.80;1.00;;;;;;2483594;40;2242;-88
2022/05/14 06:34:26;1359972.00;4.53;2382.29;143232.00;0.48;248.14;;;;;30.60;1.00;;;;;;2306651;55;3738;-88
2022/05/14 06:39:30;1547135.00;5.16;2732.13;121820.00;0.41;211.22;;;;;31.20;1.00;;;;;;1626402;40;3646;-89
2022/05/14 06:44:35;275011.00;0.92;474.96;0.00;0.00;0.62;;;;;31.70;1.00;;;;;;2370126;40;2090;-89
2022/05/14 06:47:06;543900.00;1.81;937.44;0.00;0.00;0.62;;;;;31.80;1.00;;;;;;2303608;56;3802;-89
2022/05/14 06:57:23;50453.00;0.17;87.97;0.00;0.00;0.62;;;;;31.60;1.00;;;;;;2400639;40;2032;-89
2022/05/14 07:00:01;1151713.00;3.84;2003.16;77677.00;0.26;135.02;;;;;31.70;1.00;;;;;;2397439;40;3752;-89
2022/05/14 07:18:23;329298.00;1.10;568.28;0.00;0.00;0.62;;;;;32.00;1.00;;;;;;2468621;40;2067;-86
2022/05/14 07:28:48;305198.00;1.02;526.86;18072.00;0.06;31.93;;;;;31.50;1.00;;;;;;1808974;40;3087;-89
2022/05/14 07:33:49;1040073.00;3.47;1803.58;71837.00;0.24;124.93;;;;;31.90;1.00;;;;;;2273491;61;1527;-89
2022/05/14 07:41:30;511661.00;1.71;881.90;0.00;0.00;0.62;;;;;31.80;1.00;;;;;;744305;56;2831;-87
2022/05/14 07:49:53;750510.00;2.50;1294.94;10887.00;0.04;19.49;;;;;32.70;1.00;;;;;;2275347;56;1655;-89
2022/05/14 07:57:30;1626930.00;5.42;2884.32;172159.00;0.57;297.99;;;;;32.70;1.00;;;;;;2269358;61;1428;-89
2022/05/14 07:59:57;245956.00;0.82;425.00;0.00;0.00;0.62;;;;;32.20;1.00;;;;;;2323435;41;3612;-87
2022/05/14 08:02:31;765545.00;2.55;1321.10;0.00;0.00;0.62;;;;;31.70;1.00;;;;;;2273382;61;1988;-90
2022/05/14 08:05:10;389594.00;1.30;671.92;88498.00;0.29;153.71;;;;;30.80;1.00;;;;;;2311629;40;3588;-88
2022/05/14 08:07:38;714705.00;2.38;1232.75;43638.00;0.15;76.18;;;;;31.20;1.00;;;;;;2271614;61;1617;-89
2022/05/14 08:17:52;883980.00;2.95;1528.00;69281.00;0.23;120.52;;;;;31.40;1.00;;;;;;2277429;61;1452;-88
2022/05/14 08:20:27;182264.00;0.61;315.39;0.00;0.00;0.62;;;;;31.80;1.00;;;;;;2285448;40;3588;-89
2022/05/14 08:25:27;836971.00;2.79;1445.68;0.00;0.00;0.62;;;;;31.70;1.00;;;;;;2273877;61;1363;-89
2022/05/14 08:27:56;1071064.00;3.57;1858.75;159248.00;0.53;275.74;;;;;32.40;1.00;;;;;;2271961;61;1449;-87
2022/05/14 08:30:24;937253.00;3.12;1621.64;50695.00;0.17;88.39;;;;;32.10;1.00;;;;;;2310661;55;3733;-88
2022/05/14 08:35:32;126131736.00;420.44;81299600.00;71914.00;0.24;125.07;;;;;31.30;1.00;;;;;;1597416;40;3250;-89
2022/05/14 08:40:40;744042.00;2.48;1283.70;24911.00;0.08;43.77;;;;;31.90;1.00;;;;;;2273619;61;1348;-89
2022/05/14 08:43:17;987595.00;3.29;1710.51;0.00;0.00;0.62;;;;;31.40;1.00;;;;;;2271908;61;2006;-89
2022/05/14 08:45:45;1708383.00;5.69;3041.72;110889.00;0.37;192.36;;;;;31.30;1.00;;;;;;2291656;56;3876;-88
2022/05/14 08:48:17;319795.00;1.07;551.95;0.00;0.00;0.62;;;;;31.50;1.00;;;;;;2295447;56;3783;-88
2022/05/14 08:58:43;1091871.00;3.64;1895.89;62055.00;0.21;108.03;;;;;31.00;1.00;;;;;;1990813;55;3605;-87
2022/05/14 09:01:18;354301.00;1.18;611.25;71056.00;0.24;123.59;;;;;30.70;1.00;;;;;;2279852;55;3748;-89
2022/05/14 09:03:49;392709.00;1.31;677.27;65623.00;0.22;114.20;;;;;30.50;1.00;;;;;;2312236;40;3742;-87
2022/05/14 09:08:50;1824607.00;6.08;3270.18;0.00;0.00;0.62;;;;;30.80;1.00;;;;;;2363803;55;3693;-90
2022/05/14 09:11:32;564895.00;1.88;973.64;65925.00;0.22;114.72;;;;;30.50;1.00;;;;;;2403613;40;3767;-89
2022/05/14 09:14:11;413252.00;1.38;712.59;105060.00;0.35;182.31;;;;;29.60;1.00;;;;;;2274959;55;3870;-89
2022/05/14 09:19:19;1933702.00;6.45;3489.07;101158.00;0.34;175.57;;;;;29.30;1.00;;;;;;2291128;55;3636;-87
2022/05/14 09:21:52;1471301.00;4.90;2589.23;84174.00;0.28;146.25;;;;;29.20;1.00;;;;;;2279782;40;3621;-88
2022/05/14 09:24:26;466607.00;1.56;804.35;72236.00;0.24;125.62;;;;;29.00;1.00;;;;;;2276108;40;3438;-86
2022/05/14 09:26:55;243331.00;0.81;420.48;28744.00;0.10;50.41;;;;;28.70;1.00;;;;;;2302480;55;3770;-87
2022/05/14 09:34:43;1076318.00;3.59;1868.12;62213.00;0.21;108.30;;;;;28.50;1.00;;;;;;2278878;61;1360;-88
2022/05/14 09:37:13;1015535.00;3.39;1760.01;16671.00;0.06;29.50;;;;;28.20;1.00;;;;;;2287859;39;3639;-88
2022/05/14 09:39:41;1728067.00;5.76;3080.09;106770.00;0.36;185.26;;;;;28.30;1.00;;;;;;2283997;55;3731;-90
2022/05/14 09:42:25;368797.00;1.23;636.17;71807.00;0.24;124.88;;;;;28.60;1.00;;;;;;2297883;40;3758;-87
2022/05/14 09:44:57;547323.00;1.82;943.34;77825.00;0.26;135.28;;;;;28.50;1.00;;;;;;2276330;61;1688;-89
2022/05/14 09:47:27;254209.00;0.85;439.19;0.00;0.00;0.62;;;;;28.30;1.00;;;;;;2276367;61;1714;-88
2022/05/14 09:52:35;336083.00;1.12;579.94;24310.00;0.08;42.73;;;;;28.50;1.00;;;;;;2272611;56;1838;-86
2022/05/14 09:55:08;979122.00;3.26;1695.53;27323.00;0.09;47.95;;;;;28.20;1.00;;;;;;2272222;61;1539;-88
2022/05/14 10:00:13;787978.00;2.63;1360.17;0.00;0.00;0.62;;;;;27.70;1.00;;;;;;2273806;61;1420;-87
2022/05/14 10:02:58;818990.00;2.73;1414.26;16259.00;0.05;28.79;;;;;27.90;1.00;;;;;;2272190;61;1920;-88
2022/05/14 10:13:26;1380778.00;4.60;2420.72;37342.00;0.12;65.29;;;;;27.30;1.00;;;;;;1907579;40;3224;-88
2022/05/14 10:18:45;1149032.00;3.83;1998.34;111985.00;0.37;194.26;;;;;27.40;1.00;;;;;;2278556;40;3489;-88
2022/05/14 10:21:29;260107.00;0.87;449.33;37514.00;0.13;65.59;;;;;27.40;1.00;;;;;;2278469;40;3833;-88
2022/05/14 10:27:30;62381.00;0.21;108.59;0.00;0.00;0.62;;;;;27.90;1.00;;;;;;2285643;40;3634;-88
2022/05/14 10:32:34;995295.00;3.32;1724.14;18168.00;0.06;32.10;;;;;27.60;1.00;;;;;;1754054;40;3213;-87
2022/05/14 10:35:11;621787.00;2.07;1071.85;19150.00;0.06;33.80;;;;;27.50;1.00;;;;;;2282827;39;3594;-88
2022/05/14 10:40:20;1143943.00;3.81;1989.19;10887.00;0.04;19.49;;;;;27.50;1.00;;;;;;2283154;40;3628;-87
2022/05/14 10:43:09;1418820.00;4.73;2491.27;95033.00;0.32;165.00;;;;;27.60;1.00;;;;;;2372280;40;3755;-87
2022/05/14 10:45:42;1255693.00;4.19;2191.24;39088.00;0.13;68.31;;;;;27.90;1.00;;;;;;2272223;61;1626;-85
2022/05/14 10:48:43;614848.00;2.05;1059.86;78784.00;0.26;136.94;;;;;27.90;1.00;;;;;;2272174;61;1010;-88
2022/05/14 10:51:20;490215.00;1.63;844.98;104389.00;0.35;181.15;;;;;28.00;1.00;;;;;;2283214;40;3562;-88
2022/05/14 10:53:49;276887.00;0.92;478.19;5846.00;0.02;10.75;;;;;28.20;1.00;;;;;;2268175;61;1518;-88
2022/05/14 10:56:25;189754.00;0.63;328.29;480.00;0.00;1.45;;;;;28.50;1.00;;;;;;2296143;40;3794;-88
2022/05/14 11:01:31;1017416.00;3.39;1763.34;23319.00;0.08;41.02;;;;;28.10;1.00;;;;;;2270327;61;1269;-87
2022/05/14 11:04:00;1154883.00;3.85;2008.86;153051.00;0.51;265.07;;;;;27.90;1.00;;;;;;2268105;61;2005;-87
2022/05/14 11:06:36;436608.00;1.46;752.75;65011.00;0.22;113.14;;;;;27.80;1.00;;;;;;2268195;61;1458;-88
2022/05/14 11:09:17;0.00;0.00;0.62;0.00;0.00;0.62;;;;;27.80;1.00;;;;;;2268074;61;1774;-87
2022/05/14 11:11:55;263896.00;0.88;455.85;0.00;0.00;0.62;;;;;27.70;1.00;;;;;;2277670;55;3771;-89
2022/05/14 11:14:24;369530.00;1.23;637.43;40352.00;0.13;70.50;;;;;27.60;1.00;;;;;;2272052;61;1478;-88
2022/05/14 11:16:53;1664082.00;5.55;2955.85;280102.00;0.93;483.71;;;;;27.50;1.00;;;;;;2272158;61;1013;-88
2022/05/14 11:24:38;270264.00;0.90;466.80;0.00;0.00;0.62;;;;;26.10;1.00;;;;;;1340968;40;3214;-87
2022/05/14 11:27:06;1278593.00;4.26;2232.98;246492.00;0.82;425.92;;;;;26.50;1.00;;;;;;2272100;61;1939;-89
2022/05/14 11:29:48;819405.00;2.73;1414.99;132451.00;0.44;229.56;;;;;26.80;1.00;;;;;;2274505;40;3582;-87
2022/05/14 11:32:20;378069.00;1.26;652.11;85702.00;0.29;148.89;;;;;26.80;1.00;;;;;;2271932;61;1505;-89
2022/05/14 11:34:56;337099.00;1.12;581.69;27415.00;0.09;48.11;;;;;27.00;1.00;;;;;;2285631;40;3651;-87
2022/05/14 11:37:31;352063.00;1.17;607.41;10536.00;0.04;18.88;;;;;27.40;1.00;;;;;;2272086;61;1630;-88
2022/05/14 11:40:29;370179.00;1.23;638.54;16996.00;0.06;30.07;;;;;27.70;1.00;;;;;;2272235;61;1151;-89
2022/05/14 11:43:10;1149958.00;3.83;2000.00;65094.00;0.22;113.28;;;;;27.90;1.00;;;;;;2271902;61;1917;-88
2022/05/14 11:48:12;1175512.00;3.92;2046.01;106302.00;0.35;184.45;;;;;27.60;1.00;;;;;;2280965;40;3518;-86
2022/05/14 11:50:52;173923.00;0.58;301.02;0.00;0.00;0.62;;;;;27.50;1.00;;;;;;2272121;61;1169;-88
2022/05/14 11:58:36;840011.00;2.80;1450.99;0.00;0.00;0.62;;;;;27.70;1.00;;;;;;2273475;61;1384;-89
2022/05/14 12:01:08;242682.00;0.81;419.36;0.00;0.00;0.62;;;;;27.90;1.00;;;;;;2271936;61;1542;-87
2022/05/14 12:03:41;260993.00;0.87;450.86;0.00;0.00;0.62;;;;;28.10;1.00;;;;;;2272149;61;1992;-87
2022/05/14 12:06:32;195525.00;0.65;338.22;0.00;0.00;0.62;;;;;28.10;1.00;;;;;;2278159;55;3754;-87
2022/05/14 12:09:18;80581.00;0.27;140.04;0.00;0.00;0.62;;;;;28.00;1.00;;;;;;2272080;61;1690;-88
2022/05/14 12:11:57;99849.00;0.33;173.31;0.00;0.00;0.62;;;;;28.00;1.00;;;;;;2272071;61;1451;-88
2022/05/14 12:14:32;94977.00;0.32;164.90;0.00;0.00;0.62;;;;;27.60;1.00;;;;;;2272037;61;1557;-89
2022/05/14 12:17:02;1078865.00;3.60;1872.67;51542.00;0.17;89.85;;;;;28.00;1.00;;;;;;2315642;40;3589;-89
2022/05/14 12:19:31;2021298.00;6.74;3668.15;150107.00;0.50;259.99;;;;;28.20;1.00;;;;;;2272281;61;1717;-88
2022/05/14 12:22:04;1498391.00;4.99;2640.09;221403.00;0.74;382.76;;;;;28.40;1.00;;;;;;2324925;40;3646;-89
2022/05/14 12:24:34;1989859.00;6.63;3603.52;312664.00;1.04;539.69;;;;;28.30;1.00;;;;;;2272785;61;2002;-89
2022/05/14 12:27:02;618796.00;2.06;1066.69;60297.00;0.20;104.99;;;;;28.00;1.00;;;;;;2272694;61;1723;-86
2022/05/14 12:29:33;338512.00;1.13;584.12;73881.00;0.25;128.47;;;;;27.90;1.00;;;;;;2272771;61;995;-90
2022/05/14 12:34:48;236890.00;0.79;409.40;78601.00;0.26;136.62;;;;;27.90;1.00;;;;;;2272642;61;628;-88
2022/05/14 12:37:23;195734.00;0.65;338.58;0.00;0.00;0.62;;;;;28.20;1.00;;;;;;2274220;55;3850;-87
2022/05/14 12:39:53;383438.00;1.28;661.33;0.00;0.00;0.62;;;;;28.30;1.00;;;;;;2272494;61;1423;-88
2022/05/14 12:42:30;216462.00;0.72;374.26;0.00;0.00;0.62;;;;;28.20;1.00;;;;;;2274367;55;3845;-86
2022/05/14 12:45:00;16921.00;0.06;29.94;0.00;0.00;0.62;;;;;28.40;1.00;;;;;;2272665;61;2013;-89
2022/05/14 12:49:57;694927.00;2.32;1198.44;0.00;0.00;0.62;;;;;28.40;1.00;;;;;;2274067;61;1340;-88
2022/05/14 12:52:28;207845.00;0.69;359.43;0.00;0.00;0.62;;;;;28.40;1.00;;;;;;2272618;61;1300;-89
2022/05/14 12:54:59;358640.00;1.20;618.71;53757.00;0.18;93.68;;;;;28.30;1.00;;;;;;2272682;61;1578;-88
2022/05/14 12:57:28;189277.00;0.63;327.46;0.00;0.00;0.62;;;;;27.50;1.00;;;;;;2272678;61;1204;-88
2022/05/14 12:59:56;364011.00;1.21;627.94;32729.00;0.11;57.31;;;;;27.60;1.00;;;;;;2272745;61;1025;-88
2022/05/14 13:02:29;259113.00;0.86;447.62;0.00;0.00;0.62;;;;;27.80;1.00;;;;;;2272621;61;1385;-88
2022/05/14 13:05:04;145165.00;0.48;251.47;0.00;0.00;0.62;;;;;27.80;1.00;;;;;;2272708;61;2014;-89
2022/05/14 13:07:35;1033087.00;3.44;1791.16;129367.00;0.43;224.24;;;;;27.80;1.00;;;;;;2272753;61;1045;-87
2022/05/14 13:10:03;1501797.00;5.01;2646.50;144977.00;0.48;251.15;;;;;27.60;1.00;;;;;;2292234;40;3777;-89
2022/05/14 13:12:34;1457263.00;4.86;2562.96;130399.00;0.43;226.02;;;;;27.80;1.00;;;;;;2272678;61;1340;-89
2022/05/14 13:15:04;495121.00;1.65;853.42;71856.00;0.24;124.97;;;;;27.80;1.00;;;;;;2272588;61;1088;-88
2022/05/14 13:17:36;381474.00;1.27;657.96;74766.00;0.25;130.00;;;;;27.80;1.00;;;;;;2272470;61;1712;-87
2022/05/14 13:20:06;578173.00;1.93;996.55;73364.00;0.24;127.57;;;;;27.80;1.00;;;;;;2272566;61;1629;-89
2022/05/14 13:22:37;304414.00;1.01;525.51;70699.00;0.24;122.97;;;;;27.30;1.00;;;;;;2272294;61;2055;-88
2022/05/14 13:25:29;146792.00;0.49;254.28;0.00;0.00;0.62;;;;;26.90;1.00;;;;;;2272534;61;1974;-88
2022/05/14 13:28:08;199313.00;0.66;344.74;0.00;0.00;0.62;;;;;26.60;1.00;;;;;;2272669;61;1264;-87
2022/05/14 13:30:36;432806.00;1.44;746.21;85559.00;0.29;148.64;;;;;26.40;1.00;;;;;;2272254;61;1287;-89
2022/05/14 13:33:06;199548.00;0.67;345.15;0.00;0.00;0.62;;;;;26.60;1.00;;;;;;2272267;61;1549;-88
2022/05/14 13:40:52;1140084.00;3.80;1982.26;13594.00;0.05;24.18;;;;;27.60;1.00;;;;;;2266959;61;1605;-87
2022/05/14 13:43:26;767475.00;2.56;1324.46;86779.00;0.29;150.75;;;;;27.70;1.00;;;;;;2264248;61;2096;-88
2022/05/14 13:45:57;226221.00;0.75;391.05;0.00;0.00;0.62;;;;;28.20;1.00;;;;;;2264473;61;1203;-88
2022/05/14 13:48:34;395706.00;1.32;682.42;0.00;0.00;0.62;;;;;28.30;1.00;;;;;;2320708;41;3601;-87
2022/05/14 13:51:09;215474.00;0.72;372.56;0.00;0.00;0.62;;;;;28.50;1.00;;;;;;2268415;61;1767;-88
2022/05/14 13:53:40;153082.00;0.51;265.12;0.00;0.00;0.62;;;;;28.40;1.00;;;;;;2268321;61;1562;-87
2022/05/14 13:56:09;214011.00;0.71;370.04;48894.00;0.16;85.27;;;;;28.30;1.00;;;;;;2268534;61;1046;-87